Time;durP1;ratioP1;P1;durP2;ratioP2;P2;SDS_P1;SDS_P2;PMS_P1;PMS_P2;Temp;Humidity;BMP_temperature;BMP_pressure;BME280_temperature;BME280_humidity;BME280_pressure;Samples;Min_cycle;Max_cycle;Signal;HPM_P1;HPM_P2
2021/06/03 00:01:16;;;;;;;5.05;4.65;;;;;;;16.80;49.18;94788.75;834024;71;33139;-82
2021/06/03 00:16:15;;;;;;;5.72;4.90;;;;;;;16.90;49.31;94788.97;827283;71;30262;-83
2021/06/03 00:31:12;;;;;;;5.08;4.33;;;;;;;16.79;48.82;94785.88;821455;71;31952;-83
2021/06/03 00:46:09;;;;;;;5.03;4.62;;;;;;;16.85;49.17;94785.72;827575;71;29641;-81
2021/06/03 01:01:09;;;;;;;5.25;4.75;;;;;;;16.76;48.93;94789.72;828343;71;30219;-83
2021/06/03 01:16:10;;;;;;;4.22;3.92;;;;;;;16.65;48.77;94797.25;825926;71;29659;-83
2021/06/03 01:31:09;;;;;;;4.58;4.17;;;;;;;16.72;48.71;94797.52;829235;71;29695;-82
2021/06/03 01:46:18;;;;;;;4.40;4.00;;;;;;;16.78;48.63;94792.27;832359;71;32754;-79
2021/06/03 02:01:15;;;;;;;4.85;4.45;;;;;;;16.77;48.88;94800.00;829243;71;33198;-81
2021/06/03 02:16:24;;;;;;;4.90;4.50;;;;;;;16.73;49.23;94806.27;800546;74;30377;-81
2021/06/03 02:31:12;;;;;;;5.53;4.37;;;;;;;16.67;49.60;94803.56;820515;71;30353;-82
2021/06/03 02:46:09;;;;;;;5.45;4.83;;;;;;;16.70;49.93;94817.48;834005;71;30330;-82
2021/06/03 03:16:14;;;;;;;4.80;4.40;;;;;;;16.80;49.57;94843.08;827708;71;32662;-82
2021/06/03 03:31:18;;;;;;;5.53;4.87;;;;;;;16.97;49.30;94849.43;834260;71;32685;-80
2021/06/03 03:46:08;;;;;;;5.50;4.85;;;;;;;17.18;49.91;94852.92;829071;71;29713;-82
2021/06/03 04:01:09;;;;;;;5.45;4.95;;;;;;;18.06;49.96;94855.77;828227;71;30568;-83
2021/06/03 04:16:10;;;;;;;7.90;7.10;;;;;;;19.24;45.43;94862.88;808690;71;30866;-82
2021/06/03 04:31:19;;;;;;;6.35;5.80;;;;;;;19.93;43.42;94877.13;821352;70;32681;-83
2021/06/03 04:46:25;;;;;;;5.35;4.95;;;;;;;21.81;39.44;94876.61;827839;71;32653;-82
2021/06/03 05:01:11;;;;;;;5.78;5.37;;;;;;;22.20;37.58;94887.31;828363;71;30327;-82
2021/06/03 05:31:14;;;;;;;5.65;4.80;;;;;;;21.29;37.33;94856.36;835496;71;32783;-82
2021/06/03 05:46:15;;;;;;;4.93;4.53;;;;;;;22.43;36.41;94903.46;819535;71;32667;-82
2021/06/03 06:01:14;;;;;;;5.90;4.73;;;;;;;23.51;34.08;94908.73;833276;71;33305;-80
2021/06/03 06:16:15;;;;;;;4.97;4.47;;;;;;;24.79;32.23;94909.41;825435;71;33102;-83
2021/06/03 06:31:11;;;;;;;4.77;4.13;;;;;;;25.93;30.15;94900.17;834014;71;29708;-83
2021/06/03 06:46:38;;;;;;;6.00;4.37;;;;;;;25.51;30.04;94884.53;828978;70;32980;-85
2021/06/03 07:01:15;;;;;;;5.00;4.60;;;;;;;26.61;30.28;94912.38;829492;70;32999;-84
2021/06/03 07:16:11;;;;;;;4.80;4.40;;;;;;;;;;820922;71;32000;-82
2021/06/03 07:31:15;;;;;;;4.70;4.40;;;;;;;22.64;28.20;94239.67;827786;71;32712;-81
2021/06/03 07:46:10;;;;;;;11.07;4.70;;;;;;;27.28;27.59;94913.66;834126;71;30742;-79
2021/06/03 08:01:22;;;;;;;4.73;4.43;;;;;;;27.06;27.62;165806.66;827629;71;32676;-81
2021/06/03 08:16:08;;;;;;;4.90;4.47;;;;;;;27.92;26.89;94904.17;828439;71;30187;-83
2021/06/03 08:31:29;;;;;;;5.07;4.67;;;;;;;28.66;26.42;94898.88;827335;71;32708;-86
2021/06/03 08:46:10;;;;;;;5.40;4.90;;;;;;;28.16;26.20;94917.96;829219;71;29704;-81
2021/06/03 09:16:14;;;;;;;5.10;4.70;;;;;;;28.25;26.24;94916.22;830363;70;31494;-83
2021/06/03 09:31:11;;;;;;;4.90;4.60;;;;;;;28.36;25.64;94928.48;800797;74;29813;-80
2021/06/03 09:46:16;;;;;;;4.50;4.10;;;;;;;28.72;25.75;94915.44;821240;71;31481;-82
2021/06/03 10:01:09;;;;;;;4.30;4.10;;;;;;;29.07;25.49;94918.49;828573;71;30317;-82
2021/06/03 10:16:12;;;;;;;5.50;5.07;;;;;;;29.36;24.98;94919.09;834325;71;30530;-81
2021/06/03 10:31:14;;;;;;;5.17;4.77;;;;;;;29.25;24.71;94925.16;834397;71;33073;-81
2021/06/03 10:46:11;;;;;;;5.10;4.70;;;;;;;28.80;24.96;94925.05;823405;71;32433;-83
2021/06/03 11:01:18;;;;;;;4.70;4.30;;;;;;;28.89;25.06;94905.69;826622;71;33306;-83
2021/06/03 11:16:16;;;;;;;5.40;4.90;;;;;;;29.29;25.02;94907.56;828527;71;30324;-83
2021/06/03 11:31:24;;;;;;;6.20;5.70;;;;;;;29.64;24.92;94904.36;828463;71;30734;-83
2021/06/03 11:46:55;;;;;;;6.30;5.80;;;;;;;28.90;25.42;94889.08;839909;70;32807;-87
2021/06/03 12:01:26;;;;;;;7.10;6.40;;;;;;;28.23;25.89;94876.70;827957;71;32676;-81
2021/06/03 12:16:19;;;;;;;6.20;5.70;;;;;;;27.40;27.16;94871.48;827522;71;32668;-83
2021/06/03 12:31:22;;;;;;;5.07;4.77;;;;;;;-146.52;100.00;123554.02;834308;71;32677;-81
2021/06/03 12:46:10;;;;;;;5.80;5.30;;;;;;;26.64;28.34;94885.44;819886;71;30787;-84
2021/06/03 13:01:15;;;;;;;5.67;5.27;;;;;;;26.10;29.31;94886.60;827730;71;33437;-81
2021/06/03 13:16:16;;;;;;;5.00;4.67;;;;;;;26.19;29.63;94884.90;828841;71;33070;-79
2021/06/03 13:31:12;;;;;;;4.77;4.37;;;;;;;25.92;29.92;94873.64;834286;71;32463;-81
2021/06/03 13:46:15;;;;;;;5.67;5.17;;;;;;;25.60;30.58;94880.92;827329;71;32812;-81
2021/06/03 14:01:30;;;;;;;5.00;4.60;;;;;;;25.47;30.63;94876.44;828447;71;32674;-82
2021/06/03 14:16:09;;;;;;;4.77;4.47;;;;;;;25.67;30.75;94878.29;828642;71;30341;-82
2021/06/03 14:31:19;;;;;;;4.90;4.60;;;;;;;25.63;30.93;94884.22;825742;71;32629;-84
2021/06/03 14:46:13;;;;;;;7.47;5.13;;;;;;;25.07;31.76;94895.48;828131;71;30862;-83
2021/06/03 15:16:10;;;;;;;5.97;5.37;;;;;;;23.53;37.75;94914.52;835373;71;30852;-82
2021/06/03 15:31:19;;;;;;;5.63;5.23;;;;;;;23.44;36.79;94922.59;819447;71;32868;-78
2021/06/03 15:46:18;;;;;;;7.27;5.33;;;;;;;22.72;36.66;94933.41;833880;71;32664;-79
2021/06/03 16:01:19;;;;;;;6.40;5.83;;;;;;;22.09;38.00;94945.91;834257;71;32706;-78
2021/06/03 16:16:14;;;;;;;10.60;7.97;;;;;;;21.41;39.37;94953.70;828641;71;32635;-81
2021/06/03 16:31:31;;;;;;;45.55;28.50;;;;;;;21.18;39.83;94976.23;827719;71;32791;-75
2021/06/03 16:46:09;;;;;;;123.80;62.83;;;;;;;21.01;40.04;94989.34;815314;71;30395;-78
2021/06/03 16:47:13;;;;;;;116.05;59.60;;;;;;;20.96;40.13;94989.58;794619;74;26317;-76
2021/06/03 17:01:16;;;;;;;6.70;6.10;;;;;;;20.73;40.99;95002.70;829071;71;32756;-80
2021/06/03 17:16:15;;;;;;;6.28;5.78;;;;;;;20.38;41.64;95003.23;833770;71;32676;-82
2021/06/03 17:31:12;;;;;;;5.90;5.30;;;;;;;20.21;41.65;95014.38;833816;71;32053;-77
2021/06/03 17:46:14;;;;;;;5.08;4.67;;;;;;;19.86;42.08;95023.39;833803;71;32677;-77
2021/06/03 18:01:32;;;;;;;5.30;4.90;;;;;;;19.64;42.71;95041.11;833103;71;32799;-78
2021/06/03 18:16:40;;;;;;;5.97;5.33;;;;;;;19.60;43.27;95048.98;862685;68;31416;-80
2021/06/03 18:31:15;;;;;;;5.95;5.40;;;;;;;19.57;43.47;95058.41;827516;71;33507;-75
2021/06/03 18:46:35;;;;;;;7.35;6.65;;;;;;;19.49;43.93;95077.92;833939;71;33363;-77
2021/06/03 19:01:12;;;;;;;6.87;6.15;;;;;;;19.24;44.39;95074.96;828022;71;30444;-78
2021/06/03 19:16:10;;;;;;;6.15;5.65;;;;;;;18.98;45.39;95092.73;828324;71;29256;-79
2021/06/03 19:31:11;;;;;;;6.58;6.08;;;;;;;18.87;46.85;95105.41;829990;71;29273;-83
2021/06/03 19:46:17;;;;;;;6.53;5.97;;;;;;;18.96;47.83;95103.47;827961;71;32207;-79
2021/06/03 20:01:29;;;;;;;5.62;5.22;;;;;;;18.98;48.46;95106.59;834651;71;31783;-80
2021/06/03 20:16:16;;;;;;;6.33;5.72;;;;;;;18.96;48.42;95096.83;827442;71;32204;-77
2021/06/03 20:31:19;;;;;;;5.65;5.25;;;;;;;18.93;48.89;95090.81;834116;71;31744;-78
2021/06/03 20:46:18;;;;;;;5.85;5.40;;;;;;;18.82;48.75;95091.77;827751;71;31767;-80
2021/06/03 21:16:10;;;;;;;6.35;5.85;;;;;;;18.67;49.50;95079.80;834269;71;29353;-77
2021/06/03 21:31:15;;;;;;;6.80;6.10;;;;;;;18.59;49.73;95076.65;828231;71;31711;-76
2021/06/03 21:46:10;;;;;;;7.28;6.58;;;;;;;18.48;49.66;95065.63;834176;71;29750;-77
2021/06/03 22:01:29;;;;;;;7.97;7.17;;;;;;;18.39;50.32;95064.38;828780;71;31817;-77
2021/06/03 22:16:14;;;;;;;8.48;7.37;;;;;;;18.31;50.79;95067.86;828873;71;31735;-77
2021/06/03 22:31:12;;;;;;;6.95;6.37;;;;;;;18.23;51.22;95067.37;828867;71;31001;-75
2021/06/03 22:46:16;;;;;;;6.83;6.20;;;;;;;18.12;52.40;95069.59;833876;71;31761;-76
2021/06/03 23:01:17;;;;;;;6.75;6.15;;;;;;;17.95;52.87;95061.18;800440;74;31901;-76
2021/06/03 23:16:10;;;;;;;7.00;6.30;;;;;;;17.85;53.23;95053.58;828462;71;29836;-77
2021/06/03 23:31:09;;;;;;;7.45;6.53;;;;;;;17.81;53.82;95046.77;829211;71;30512;-78
2021/06/03 23:46:09;;;;;;;7.00;6.35;;;;;;;17.81;54.14;95049.98;828160;71;30749;-77
